Time,TemperatureF,DewpointF,PressureIn,WindDirection,WindDirectionDegrees,WindSpeedMPH,WindSpeedGustMPH,Humidity,HourlyPrecipIn,Conditions,Clouds,dailyrainin,SoftwareType,DateUTC
2013-05-20 00:01:00,66.5,54.4,29.86,SE,125,5.0,8.0,65,0.00,,,0.00,VWS V14.01,2013-05-20 04:01:00,
2013-05-20 00:02:00,66.6,54.1,29.86,SSE,147,4.0,8.0,64,0.00,,,0.00,VWS V14.01,2013-05-20 04:02:00,
2013-05-20 00:07:00,66.7,53.7,29.85,ESE,115,3.0,4.0,63,0.00,,,0.00,VWS V14.01,2013-05-20 04:07:00,
2013-05-20 00:12:00,66.7,53.3,29.85,SSE,167,5.0,5.0,62,0.00,,,0.00,VWS V14.01,2013-05-20 04:12:00,
2013-05-20 00:17:00,66.9,53.0,29.85,ESE,122,7.0,7.0,61,0.00,,,0.00,VWS V14.01,2013-05-20 04:17:00,
2013-05-20 00:22:00,66.9,53.0,29.85,ESE,113,9.0,11.0,61,0.00,,,0.00,VWS V14.01,2013-05-20 04:22:00,
2013-05-20 00:27:00,66.8,52.5,29.85,South,175,8.0,8.0,60,0.00,,,0.00,VWS V14.01,2013-05-20 04:27:00,
2013-05-20 00:32:00,66.7,52.4,29.85,SE,133,4.0,11.0,60,0.00,,,0.00,VWS V14.01,2013-05-20 04:32:00,
2013-05-20 00:37:00,66.5,52.2,29.85,South,169,4.0,5.0,60,0.00,,,0.00,VWS V14.01,2013-05-20 04:37:00,
2013-05-20 00:42:00,66.3,52.0,29.85,SE,138,4.0,5.0,60,0.00,,,0.00,VWS V14.01,2013-05-20 04:42:00,
2013-05-20 00:48:00,66.1,52.3,29.85,SE,138,9.0,9.0,61,0.00,,,0.00,VWS V14.01,2013-05-20 04:48:00,
2013-05-20 00:53:00,66.0,52.2,29.85,SE,143,8.0,8.0,61,0.00,,,0.00,VWS V14.01,2013-05-20 04:53:00,
2013-05-20 00:58:00,65.7,52.3,29.85,ESE,123,2.0,3.0,62,0.00,,,0.00,VWS V14.01,2013-05-20 04:58:00,
2013-05-20 01:03:00,65.5,52.2,29.85,ESE,123,4.0,7.0,62,0.00,,OVC014,0.00,VWS V14.01,2013-05-20 05:03:00,
2013-05-20 01:08:00,65.2,52.3,29.85,ESE,111,4.0,4.0,63,0.00,,OVC014,0.00,VWS V14.01,2013-05-20 05:08:00,
2013-05-20 01:13:00,65.2,52.3,29.85,SE,125,5.0,6.0,63,0.00,,OVC014,0.00,VWS V14.01,2013-05-20 05:13:00,
2013-05-20 01:18:00,65.0,52.1,29.85,ESE,117,6.0,7.0,63,0.00,,OVC014,0.00,VWS V14.01,2013-05-20 05:18:00,
2013-05-20 01:23:00,64.7,51.8,29.85,SE,132,7.0,7.0,63,0.00,,OVC014,0.00,VWS V14.01,2013-05-20 05:23:00,
2013-05-20 01:28:00,64.4,51.5,29.85,East,98,3.0,4.0,63,0.00,,OVC014,0.00,VWS V14.01,2013-05-20 05:28:00,
2013-05-20 01:33:00,64.2,51.8,29.84,SE,136,7.0,8.0,64,0.00,,OVC014,0.00,VWS V14.01,2013-05-20 05:33:00,
2013-05-20 01:38:00,64.1,51.7,29.84,SE,134,5.0,5.0,64,0.00,,OVC014,0.00,VWS V14.01,2013-05-20 05:38:00,
2013-05-20 01:43:00,64.0,51.2,29.84,SE,142,4.0,8.0,63,0.00,,OVC014,0.00,VWS V14.01,2013-05-20 05:43:00,
2013-05-20 01:48:00,64.0,51.6,29.84,SE,135,4.0,5.0,64,0.00,,OVC014,0.00,VWS V14.01,2013-05-20 05:48:00,
2013-05-20 01:53:00,64.0,51.6,29.84,SE,139,7.0,7.0,64,0.00,,OVC014,0.00,VWS V14.01,2013-05-20 05:53:00,
2013-05-20 01:58:00,63.9,51.1,29.83,ESE,119,4.0,8.0,63,0.00,,OVC014,0.00,VWS V14.01,2013-05-20 05:58:00,
2013-05-20 02:03:00,63.9,51.5,29.83,ESE,119,3.0,3.0,64,0.00,,OVC004,0.00,VWS V14.01,2013-05-20 06:03:00,
2013-05-20 02:08:00,63.8,51.4,29.83,SSE,148,5.0,6.0,64,0.00,,OVC004,0.00,VWS V14.01,2013-05-20 06:08:00,
2013-05-20 02:13:00,63.7,51.3,29.83,SE,125,5.0,8.0,64,0.00,,OVC004,0.00,VWS V14.01,2013-05-20 06:13:00,
2013-05-20 02:18:00,63.7,51.3,29.83,SSE,166,2.0,4.0,64,0.00,,OVC004,0.00,VWS V14.01,2013-05-20 06:18:00,
2013-05-20 02:23:00,63.6,51.6,29.83,SE,128,5.0,12.0,65,0.00,,OVC004,0.00,VWS V14.01,2013-05-20 06:23:00,
2013-05-20 02:28:00,63.5,51.5,29.83,SE,144,6.0,10.0,65,0.00,,OVC004,0.00,VWS V14.01,2013-05-20 06:28:00,
2013-05-20 02:34:00,63.4,51.4,29.83,SE,134,5.0,7.0,65,0.00,,OVC004,0.00,VWS V14.01,2013-05-20 06:34:00,
2013-05-20 02:39:00,63.3,51.3,29.83,SE,130,7.0,7.0,65,0.00,,OVC004,0.00,VWS V14.01,2013-05-20 06:39:00,
2013-05-20 02:44:00,63.1,51.6,29.83,SE,137,5.0,5.0,66,0.00,,OVC004,0.00,VWS V14.01,2013-05-20 06:44:00,
2013-05-20 02:49:00,63.1,51.6,29.83,SE,137,7.0,8.0,66,0.00,,OVC004,0.00,VWS V14.01,2013-05-20 06:49:00,
2013-05-20 02:54:00,63.0,51.9,29.83,SE,136,3.0,7.0,67,0.00,,OVC004,0.00,VWS V14.01,2013-05-20 06:54:00,
2013-05-20 02:59:00,62.9,51.8,29.83,South,170,9.0,9.0,67,0.00,,OVC004,0.00,VWS V14.01,2013-05-20 06:59:00,
2013-05-20 03:04:00,62.8,51.7,29.83,SE,135,4.0,4.0,67,0.00,,OVC002,0.00,VWS V14.01,2013-05-20 07:04:00,
2013-05-20 03:09:00,62.7,52.0,29.83,SE,128,4.0,4.0,68,0.00,,OVC002,0.00,VWS V14.01,2013-05-20 07:09:00,
2013-05-20 03:14:00,62.7,52.0,29.83,SE,131,5.0,5.0,68,0.00,,OVC002,0.00,VWS V14.01,2013-05-20 07:14:00,
2013-05-20 03:19:00,62.6,51.9,29.83,ESE,113,7.0,9.0,68,0.00,,OVC002,0.00,VWS V14.01,2013-05-20 07:19:00,
2013-05-20 03:24:00,62.5,52.2,29.83,ESE,117,4.0,4.0,69,0.00,,OVC002,0.00,VWS V14.01,2013-05-20 07:24:00,
2013-05-20 03:29:00,62.3,52.0,29.83,ESE,119,3.0,4.0,69,0.00,,OVC002,0.00,VWS V14.01,2013-05-20 07:29:00,
2013-05-20 03:34:00,62.2,52.3,29.83,East,101,3.0,3.0,70,0.00,,OVC002,0.00,VWS V14.01,2013-05-20 07:34:00,
2013-05-20 03:39:00,62.0,52.1,29.83,ESE,111,7.0,7.0,70,0.00,,OVC002,0.00,VWS V14.01,2013-05-20 07:39:00,
2013-05-20 03:44:00,61.7,52.2,29.82,ESE,119,6.0,6.0,71,0.00,,OVC002,0.00,VWS V14.01,2013-05-20 07:44:00,
2013-05-20 03:49:00,61.3,51.8,29.83,East,97,6.0,6.0,71,0.00,,OVC002,0.00,VWS V14.01,2013-05-20 07:49:00,
2013-05-20 03:54:00,60.8,51.3,29.83,ESE,120,8.0,8.0,71,0.00,,OVC002,0.00,VWS V14.01,2013-05-20 07:54:00,
2013-05-20 03:59:00,60.3,51.6,29.83,East,88,8.0,8.0,73,0.00,,OVC002,0.00,VWS V14.01,2013-05-20 07:59:00,
2013-05-20 04:04:00,59.9,51.2,29.84,ESE,106,7.0,7.0,73,0.00,,OVC002,0.00,VWS V14.01,2013-05-20 08:04:00,
2013-05-20 04:09:00,59.5,51.2,29.84,ESE,119,6.0,6.0,74,0.00,,OVC002,0.00,VWS V14.01,2013-05-20 08:09:00,
2013-05-20 04:14:00,59.2,51.3,29.84,ESE,123,5.0,6.0,75,0.00,,OVC002,0.00,VWS V14.01,2013-05-20 08:14:00,
2013-05-20 04:19:00,58.9,51.4,29.84,SE,125,5.0,5.0,76,0.00,,OVC002,0.00,VWS V14.01,2013-05-20 08:19:00,
2013-05-20 04:25:00,58.6,51.4,29.84,SE,124,5.0,7.0,77,0.00,,OVC002,0.00,VWS V14.01,2013-05-20 08:25:00,
2013-05-20 04:30:00,58.3,51.5,29.83,ESE,121,12.0,12.0,78,0.00,,OVC002,0.00,VWS V14.01,2013-05-20 08:30:00,
2013-05-20 04:35:00,57.9,51.4,29.83,SE,125,8.0,9.0,79,0.00,,OVC002,0.00,VWS V14.01,2013-05-20 08:35:00,
2013-05-20 04:40:00,57.5,51.4,29.83,ESE,103,8.0,9.0,80,0.00,,OVC002,0.00,VWS V14.01,2013-05-20 08:40:00,
2013-05-20 04:45:00,57.1,51.3,29.83,ESE,111,6.0,8.0,81,0.00,,OVC002,0.00,VWS V14.01,2013-05-20 08:45:00,
2013-05-20 04:50:00,56.6,50.8,29.84,ESE,105,14.0,14.0,81,0.00,,OVC002,0.00,VWS V14.01,2013-05-20 08:50:00,
2013-05-20 04:55:00,56.1,50.7,29.84,ESE,110,13.0,13.0,82,0.00,,OVC002,0.00,VWS V14.01,2013-05-20 08:55:00,
2013-05-20 05:00:00,55.8,50.7,29.83,ESE,112,8.0,12.0,83,0.00,,OVC002,0.00,VWS V14.01,2013-05-20 09:00:00,
2013-05-20 05:05:00,55.5,50.4,29.83,ESE,113,10.0,11.0,83,0.00,,OVC002,0.00,VWS V14.01,2013-05-20 09:05:00,
2013-05-20 05:10:00,55.1,50.4,29.84,ESE,111,12.0,17.0,84,0.00,,OVC002,0.00,VWS V14.01,2013-05-20 09:10:00,
2013-05-20 05:15:00,54.8,50.4,29.83,ESE,115,10.0,10.0,85,0.00,,OVC002,0.00,VWS V14.01,2013-05-20 09:15:00,
2013-05-20 05:20:00,54.7,50.6,29.83,East,91,11.0,14.0,86,0.00,,OVC002,0.00,VWS V14.01,2013-05-20 09:20:00,
2013-05-20 05:25:00,54.5,50.4,29.84,ESE,122,9.0,10.0,86,0.00,,OVC002,0.00,VWS V14.01,2013-05-20 09:25:00,
2013-05-20 05:30:00,54.5,50.7,29.85,South,172,2.0,4.0,87,0.00,,OVC002,0.00,VWS V14.01,2013-05-20 09:30:00,
2013-05-20 05:35:00,54.5,50.7,29.85,SE,128,9.0,11.0,87,0.00,,OVC002,0.00,VWS V14.01,2013-05-20 09:35:00,
2013-05-20 05:40:00,54.7,50.9,29.84,ESE,110,9.0,10.0,87,0.00,,OVC002,0.00,VWS V14.01,2013-05-20 09:40:00,
2013-05-20 05:45:00,54.8,51.3,29.83,ESE,112,10.0,15.0,88,0.00,,OVC002,0.00,VWS V14.01,2013-05-20 09:45:00,
2013-05-20 05:50:00,55.0,51.8,29.83,SE,125,12.0,17.0,89,0.00,,OVC002,0.00,VWS V14.01,2013-05-20 09:50:00,
2013-05-20 05:55:00,55.3,52.1,29.82,East,93,13.0,14.0,89,0.00,,OVC002,0.00,VWS V14.01,2013-05-20 09:55:00,
2013-05-20 06:00:00,55.5,52.6,29.82,ESE,115,8.0,9.0,90,0.00,,OVC002,0.00,VWS V14.01,2013-05-20 10:00:00,
2013-05-20 06:05:00,55.7,52.8,29.83,SE,136,8.0,11.0,90,0.00,,OVC002,0.00,VWS V14.01,2013-05-20 10:05:00,
2013-05-20 06:10:00,55.9,53.0,29.84,ESE,112,8.0,10.0,90,0.00,,OVC002,0.00,VWS V14.01,2013-05-20 10:10:00,
2013-05-20 06:15:00,56.1,53.2,29.84,ESE,119,7.0,7.0,90,0.00,,OVC002,0.00,VWS V14.01,2013-05-20 10:15:00,
2013-05-20 06:20:00,56.3,53.4,29.85,ESE,117,7.0,8.0,90,0.00,,OVC002,0.00,VWS V14.01,2013-05-20 10:20:00,
2013-05-20 06:25:00,56.4,53.5,29.85,SSE,156,11.0,13.0,90,0.00,,OVC002,0.00,VWS V14.01,2013-05-20 10:25:00,
2013-05-20 06:30:00,56.6,53.7,29.85,SE,135,7.0,10.0,90,0.00,,OVC002,0.00,VWS V14.01,2013-05-20 10:30:00,
2013-05-20 06:35:00,56.7,53.5,29.84,ESE,107,13.0,13.0,89,0.00,,OVC002,0.00,VWS V14.01,2013-05-20 10:35:00,
2013-05-20 06:40:00,56.8,53.6,29.85,ESE,103,4.0,7.0,89,0.00,,OVC002,0.00,VWS V14.01,2013-05-20 10:40:00,
2013-05-20 06:45:00,56.9,54.0,29.85,SE,129,10.0,12.0,90,0.00,,OVC002,0.00,VWS V14.01,2013-05-20 10:45:00,
2013-05-20 06:50:00,57.1,53.9,29.85,SE,130,9.0,11.0,89,0.00,,OVC002,0.00,VWS V14.01,2013-05-20 10:50:00,
2013-05-20 06:55:00,57.3,54.1,29.85,ESE,121,9.0,9.0,89,0.00,,OVC002,0.00,VWS V14.01,2013-05-20 10:55:00,
2013-05-20 07:00:00,57.6,54.4,29.85,ESE,123,8.0,8.0,89,0.00,,OVC002,0.00,VWS V14.01,2013-05-20 11:00:00,
2013-05-20 07:05:00,57.8,54.3,29.86,ESE,117,6.0,10.0,88,0.00,,OVC004,0.00,VWS V14.01,2013-05-20 11:05:00,
2013-05-20 07:10:00,57.9,54.4,29.85,East,94,13.0,16.0,88,0.00,,OVC004,0.00,VWS V14.01,2013-05-20 11:10:00,
2013-05-20 07:15:00,58.1,54.6,29.84,SE,138,9.0,12.0,88,0.00,,OVC004,0.00,VWS V14.01,2013-05-20 11:15:00,
2013-05-20 07:21:00,58.3,54.8,29.84,SE,128,10.0,11.0,88,0.00,,OVC004,0.00,VWS V14.01,2013-05-20 11:21:00,
2013-05-20 07:26:00,58.5,54.7,29.84,ESE,109,11.0,12.0,87,0.00,,OVC004,0.00,VWS V14.01,2013-05-20 11:26:00,
2013-05-20 07:31:00,58.7,54.8,29.83,SE,126,9.0,10.0,87,0.00,,OVC004,0.00,VWS V14.01,2013-05-20 11:31:00,
2013-05-20 07:36:00,58.9,55.0,29.83,ESE,115,9.0,12.0,87,0.00,,OVC004,0.00,VWS V14.01,2013-05-20 11:36:00,
2013-05-20 07:41:00,59.0,55.1,29.83,ESE,113,10.0,10.0,87,0.00,,OVC004,0.00,VWS V14.01,2013-05-20 11:41:00,
2013-05-20 07:46:00,59.1,55.2,29.83,SE,140,5.0,10.0,87,0.00,,OVC004,0.00,VWS V14.01,2013-05-20 11:46:00,
2013-05-20 07:51:00,59.3,55.4,29.83,SE,128,11.0,16.0,87,0.00,,OVC004,0.00,VWS V14.01,2013-05-20 11:51:00,
2013-05-20 07:56:00,59.4,55.5,29.83,ESE,123,9.0,10.0,87,0.00,,OVC004,0.00,VWS V14.01,2013-05-20 11:56:00,
2013-05-20 08:01:00,59.5,55.6,29.83,ESE,109,9.0,10.0,87,0.00,,OVC004,0.00,VWS V14.01,2013-05-20 12:01:00,
2013-05-20 08:06:00,59.6,55.4,29.82,ESE,104,12.0,16.0,86,0.00,,OVC004,0.00,VWS V14.01,2013-05-20 12:06:00,
2013-05-20 08:11:00,59.8,55.6,29.82,ESE,121,12.0,13.0,86,0.00,,OVC004,0.00,VWS V14.01,2013-05-20 12:11:00,
2013-05-20 08:16:00,60.0,55.8,29.82,ESE,112,11.0,12.0,86,0.00,,OVC004,0.00,VWS V14.01,2013-05-20 12:16:00,
2013-05-20 08:21:00,60.2,56.0,29.83,ESE,114,9.0,9.0,86,0.00,,OVC004,0.00,VWS V14.01,2013-05-20 12:21:00,
2013-05-20 08:26:00,60.4,55.9,29.83,ESE,115,13.0,13.0,85,0.00,,OVC004,0.00,VWS V14.01,2013-05-20 12:26:00,
2013-05-20 08:31:00,60.4,55.9,29.82,ESE,108,12.0,15.0,85,0.00,,OVC004,0.00,VWS V14.01,2013-05-20 12:31:00,
2013-05-20 08:36:00,60.5,56.0,29.83,SE,132,8.0,9.0,85,0.00,,OVC004,0.00,VWS V14.01,2013-05-20 12:36:00,
2013-05-20 08:41:00,60.6,56.1,29.83,ESE,103,3.0,3.0,85,0.00,,OVC004,0.00,VWS V14.01,2013-05-20 12:41:00,
2013-05-20 08:46:00,60.8,56.3,29.83,SE,125,9.0,10.0,85,0.00,,OVC004,0.00,VWS V14.01,2013-05-20 12:46:00,
2013-05-20 08:51:00,60.7,56.2,29.83,SE,129,13.0,14.0,85,0.00,,OVC004,0.00,VWS V14.01,2013-05-20 12:51:00,
2013-05-20 08:56:00,60.6,56.4,29.82,SE,131,10.0,12.0,86,0.00,,OVC004,0.00,VWS V14.01,2013-05-20 12:56:00,
2013-05-20 09:02:00,60.5,56.0,29.82,ESE,105,6.0,11.0,85,0.00,,OVC004,0.00,VWS V14.01,2013-05-20 13:02:00,
2013-05-20 09:07:00,60.7,56.2,29.83,ESE,115,6.0,8.0,85,0.00,,,0.00,VWS V14.01,2013-05-20 13:07:00,
2013-05-20 09:12:00,60.6,56.1,29.83,East,98,14.0,14.0,85,0.00,,,0.00,VWS V14.01,2013-05-20 13:12:00,
2013-05-20 09:17:00,60.2,55.7,29.83,ESE,105,9.0,12.0,85,0.00,,,0.00,VWS V14.01,2013-05-20 13:17:00,
2013-05-20 09:22:00,60.1,55.9,29.82,East,93,12.0,13.0,86,0.00,,,0.00,VWS V14.01,2013-05-20 13:22:00,
2013-05-20 09:27:00,60.4,56.2,29.83,South,170,6.0,7.0,86,0.00,,,0.00,VWS V14.01,2013-05-20 13:27:00,
2013-05-20 09:32:00,60.5,56.0,29.84,ESE,111,3.0,7.0,85,0.00,,,0.00,VWS V14.01,2013-05-20 13:32:00,
2013-05-20 09:37:00,60.5,56.0,29.84,ESE,116,13.0,13.0,85,0.00,,,0.00,VWS V14.01,2013-05-20 13:37:00,
2013-05-20 09:42:00,60.7,56.2,29.84,SE,144,11.0,13.0,85,0.00,,,0.00,VWS V14.01,2013-05-20 13:42:00,
2013-05-20 09:47:00,60.9,56.4,29.84,SE,130,7.0,10.0,85,0.00,,,0.00,VWS V14.01,2013-05-20 13:47:00,
2013-05-20 09:52:00,61.1,56.6,29.83,ESE,106,10.0,16.0,85,0.00,,,0.00,VWS V14.01,2013-05-20 13:52:00,
2013-05-20 09:57:00,61.0,56.1,29.82,ESE,123,13.0,15.0,84,0.00,,,0.00,VWS V14.01,2013-05-20 13:57:00,
2013-05-20 10:02:00,60.7,56.2,29.81,ESE,111,16.0,20.0,85,0.00,,,0.00,VWS V14.01,2013-05-20 14:02:00,
2013-05-20 10:07:00,60.5,55.7,29.79,ESE,111,15.0,18.0,84,0.00,,,0.00,VWS V14.01,2013-05-20 14:07:00,
2013-05-20 10:12:00,60.8,56.3,29.80,SE,131,11.0,11.0,85,0.00,,,0.00,VWS V14.01,2013-05-20 14:12:00,
2013-05-20 10:17:00,60.8,55.9,29.81,SE,144,11.0,12.0,84,0.00,,,0.00,VWS V14.01,2013-05-20 14:17:00,
2013-05-20 10:22:00,61.2,56.3,29.81,ESE,115,4.0,5.0,84,0.00,,,0.00,VWS V14.01,2013-05-20 14:22:00,
2013-05-20 10:27:00,61.4,56.2,29.81,ESE,118,9.0,12.0,83,0.00,,,0.00,VWS V14.01,2013-05-20 14:27:00,
2013-05-20 10:32:00,61.6,56.1,29.81,ESE,121,14.0,14.0,82,0.00,,,0.00,VWS V14.01,2013-05-20 14:32:00,
2013-05-20 10:37:00,62.3,56.7,29.81,SE,130,10.0,12.0,82,0.00,,,0.00,VWS V14.01,2013-05-20 14:37:00,
2013-05-20 10:42:00,62.9,57.3,29.81,SE,144,6.0,8.0,82,0.00,,,0.00,VWS V14.01,2013-05-20 14:42:00,
2013-05-20 10:48:00,63.4,57.5,29.81,SE,125,16.0,16.0,81,0.00,,,0.00,VWS V14.01,2013-05-20 14:48:00,
2013-05-20 10:53:00,63.6,57.3,29.82,ESE,113,6.0,9.0,80,0.00,,,0.00,VWS V14.01,2013-05-20 14:53:00,
2013-05-20 10:58:00,64.5,58.2,29.81,SE,144,11.0,13.0,80,0.00,,,0.00,VWS V14.01,2013-05-20 14:58:00,
2013-05-20 11:03:00,65.2,58.5,29.81,ESE,110,13.0,13.0,79,0.00,,,0.00,VWS V14.01,2013-05-20 15:03:00,
2013-05-20 11:08:00,65.8,59.5,29.81,SE,144,6.0,8.0,80,0.00,,,0.00,VWS V14.01,2013-05-20 15:08:00,
2013-05-20 11:13:00,66.7,58.9,29.81,ESE,114,11.0,11.0,76,0.00,,,0.00,VWS V14.01,2013-05-20 15:13:00,
2013-05-20 11:18:00,65.7,58.3,29.81,SE,145,11.0,11.0,77,0.00,,,0.00,VWS V14.01,2013-05-20 15:18:00,
2013-05-20 11:23:00,66.4,59.7,29.80,ESE,119,10.0,15.0,79,0.00,,,0.00,VWS V14.01,2013-05-20 15:23:00,
2013-05-20 11:28:00,66.7,59.3,29.80,South,182,12.0,17.0,77,0.00,,,0.00,VWS V14.01,2013-05-20 15:28:00,
2013-05-20 11:33:00,66.4,59.0,29.80,SSE,160,10.0,13.0,77,0.00,,,0.00,VWS V14.01,2013-05-20 15:33:00,
2013-05-20 11:38:00,66.2,58.8,29.80,SE,130,9.0,13.0,77,0.00,,,0.00,VWS V14.01,2013-05-20 15:38:00,
2013-05-20 11:43:00,66.3,59.2,29.79,SE,128,16.0,20.0,78,0.00,,,0.00,VWS V14.01,2013-05-20 15:43:00,
2013-05-20 11:48:00,67.1,60.4,29.79,ESE,120,7.0,10.0,79,0.00,,,0.00,VWS V14.01,2013-05-20 15:48:00,
2013-05-20 11:53:00,67.6,59.8,29.79,SE,133,12.0,14.0,76,0.00,,,0.00,VWS V14.01,2013-05-20 15:53:00,
2013-05-20 11:58:00,67.4,59.6,29.78,ESE,109,6.0,10.0,76,0.00,,,0.00,VWS V14.01,2013-05-20 15:58:00,
2013-05-20 12:03:00,67.7,59.9,29.79,SE,133,10.0,13.0,76,0.00,,,0.00,VWS V14.01,2013-05-20 16:03:00,
2013-05-20 12:08:00,67.9,59.7,29.78,SE,139,8.0,16.0,75,0.00,,,0.00,VWS V14.01,2013-05-20 16:08:00,
2013-05-20 12:13:00,68.3,60.5,29.78,East,101,8.0,9.0,76,0.00,,,0.00,VWS V14.01,2013-05-20 16:13:00,
2013-05-20 12:18:00,69.5,61.6,29.77,ESE,118,10.0,13.0,76,0.00,,,0.00,VWS V14.01,2013-05-20 16:18:00,
2013-05-20 12:24:00,69.9,61.2,29.78,SE,130,5.0,5.0,74,0.00,,,0.00,VWS V14.01,2013-05-20 16:24:00,
2013-05-20 12:29:00,70.5,61.0,29.77,ESE,107,17.0,17.0,72,0.00,,,0.00,VWS V14.01,2013-05-20 16:29:00,
2013-05-20 12:34:00,70.2,60.4,29.77,ESE,106,14.0,14.0,71,0.00,,,0.00,VWS V14.01,2013-05-20 16:34:00,
2013-05-20 12:39:00,69.7,60.3,29.77,SSE,153,11.0,12.0,72,0.00,,,0.00,VWS V14.01,2013-05-20 16:39:00,
2013-05-20 12:44:00,70.2,60.8,29.77,SE,132,12.0,12.0,72,0.00,,,0.00,VWS V14.01,2013-05-20 16:44:00,
2013-05-20 12:49:00,70.3,60.9,29.76,East,98,12.0,14.0,72,0.00,,,0.00,VWS V14.01,2013-05-20 16:49:00,
2013-05-20 12:54:00,70.3,60.5,29.77,SSE,161,9.0,9.0,71,0.00,,,0.00,VWS V14.01,2013-05-20 16:54:00,
2013-05-20 12:59:00,69.6,59.8,29.76,ESE,119,10.0,12.0,71,0.00,,,0.00,VWS V14.01,2013-05-20 16:59:00,
2013-05-20 13:04:00,69.4,59.2,29.76,East,88,9.0,11.0,70,0.00,,,0.00,VWS V14.01,2013-05-20 17:04:00,
2013-05-20 13:09:00,69.1,58.5,29.75,East,90,12.0,13.0,69,0.00,,,0.00,VWS V14.01,2013-05-20 17:09:00,
2013-05-20 13:14:00,69.1,58.9,29.75,East,98,7.0,10.0,70,0.00,,,0.00,VWS V14.01,2013-05-20 17:14:00,
2013-05-20 13:19:00,69.7,59.1,29.75,ESE,103,10.0,11.0,69,0.00,,,0.00,VWS V14.01,2013-05-20 17:19:00,
2013-05-20 13:24:00,70.5,59.8,29.75,East,100,9.0,9.0,69,0.00,,,0.00,VWS V14.01,2013-05-20 17:24:00,
2013-05-20 13:29:00,70.7,60.0,29.74,ESE,113,10.0,13.0,69,0.00,,,0.00,VWS V14.01,2013-05-20 17:29:00,
2013-05-20 13:34:00,71.0,59.9,29.73,East,89,10.0,10.0,68,0.00,,,0.00,VWS V14.01,2013-05-20 17:34:00,
2013-05-20 13:39:00,71.3,59.8,29.73,ESE,114,12.0,14.0,67,0.00,,,0.00,VWS V14.01,2013-05-20 17:39:00,
2013-05-20 13:44:00,71.8,60.3,29.72,ENE,76,8.0,8.0,67,0.00,,,0.00,VWS V14.01,2013-05-20 17:44:00,
2013-05-20 13:49:00,72.1,59.7,29.72,ESE,103,12.0,19.0,65,0.00,,,0.00,VWS V14.01,2013-05-20 17:49:00,
2013-05-20 13:54:00,71.5,60.0,29.72,East,90,11.0,14.0,67,0.00,,,0.00,VWS V14.01,2013-05-20 17:54:00,
2013-05-20 13:59:00,71.4,59.5,29.71,East,84,14.0,16.0,66,0.00,,,0.00,VWS V14.01,2013-05-20 17:59:00,
2013-05-20 14:04:00,72.0,60.5,29.72,ESE,112,13.0,13.0,67,0.00,,-RA,0.00,VWS V14.01,2013-05-20 18:04:00,
2013-05-20 14:09:00,73.0,61.4,29.72,ESE,102,8.0,9.0,67,0.00,,-RA,0.00,VWS V14.01,2013-05-20 18:09:00,
2013-05-20 14:15:00,73.3,60.4,29.72,SE,138,7.0,10.0,64,0.00,,-RA,0.00,VWS V14.01,2013-05-20 18:15:00,
2013-05-20 14:20:00,73.3,60.4,29.71,East,96,9.0,11.0,64,0.00,,-RA,0.00,VWS V14.01,2013-05-20 18:20:00,
2013-05-20 14:25:00,73.5,61.5,29.71,SSE,163,9.0,15.0,66,0.00,,-RA,0.00,VWS V14.01,2013-05-20 18:25:00,
2013-05-20 14:30:00,73.5,60.6,29.71,East,100,9.0,10.0,64,0.00,,-RA,0.00,VWS V14.01,2013-05-20 18:30:00,
2013-05-20 14:35:00,72.9,60.0,29.71,SSE,157,7.0,7.0,64,0.00,,-RA,0.00,VWS V14.01,2013-05-20 18:35:00,
2013-05-20 14:40:00,72.1,59.7,29.71,ESE,103,7.0,7.0,65,0.00,,-RA,0.00,VWS V14.01,2013-05-20 18:40:00,
2013-05-20 14:45:00,72.9,60.9,29.70,East,90,13.0,13.0,66,0.00,,-RA,0.00,VWS V14.01,2013-05-20 18:45:00,
2013-05-20 14:50:00,72.6,59.3,29.70,ENE,73,12.0,13.0,63,0.00,,-RA,0.00,VWS V14.01,2013-05-20 18:50:00,
2013-05-20 14:55:00,70.5,57.8,29.70,East,95,10.0,13.0,64,0.00,,-RA,0.00,VWS V14.01,2013-05-20 18:55:00,
2013-05-20 15:00:00,68.7,56.9,29.70,East,98,14.0,14.0,66,0.00,,-RA,0.00,VWS V14.01,2013-05-20 19:00:00,
2013-05-20 15:05:00,67.4,56.5,29.69,ENE,63,11.0,11.0,68,0.00,,,0.00,VWS V14.01,2013-05-20 19:05:00,
2013-05-20 15:10:00,65.9,55.8,29.70,East,98,4.0,8.0,70,0.00,,,0.00,VWS V14.01,2013-05-20 19:10:00,
2013-05-20 15:15:00,64.9,56.4,29.70,East,82,3.0,4.0,74,0.00,,,0.00,VWS V14.01,2013-05-20 19:15:00,
2013-05-20 15:30:00,61.2,56.0,29.74,ESE,105,9.0,9.0,83,0.19,,,0.19,VWS V14.01,2013-05-20 19:30:00,
2013-05-20 15:35:00,60.0,55.8,29.72,ESE,109,12.0,12.0,86,0.31,,,0.31,VWS V14.01,2013-05-20 19:35:00,
2013-05-20 15:40:00,58.9,55.4,29.73,East,98,10.0,10.0,88,0.31,,,0.31,VWS V14.01,2013-05-20 19:40:00,
2013-05-20 15:45:00,58.5,55.6,29.73,East,98,4.0,6.0,90,0.32,,,0.32,VWS V14.01,2013-05-20 19:45:00,
2013-05-20 15:50:00,58.3,55.4,29.73,East,99,2.0,2.0,90,0.32,,,0.32,VWS V14.01,2013-05-20 19:50:00,
2013-05-20 15:56:00,58.2,55.9,29.73,SE,130,1.0,1.0,92,0.32,,,0.32,VWS V14.01,2013-05-20 19:56:00,
2013-05-20 16:01:00,58.5,56.2,29.73,ESE,107,7.0,8.0,92,0.33,,,0.33,VWS V14.01,2013-05-20 20:01:00,
2013-05-20 16:06:00,58.7,55.8,29.73,SE,134,9.0,10.0,90,0.33,,,0.33,VWS V14.01,2013-05-20 20:06:00,
2013-05-20 16:11:00,58.3,55.4,29.73,ESE,116,9.0,10.0,90,0.33,,,0.33,VWS V14.01,2013-05-20 20:11:00,
2013-05-20 16:16:00,57.8,54.9,29.73,ESE,121,7.0,8.0,90,0.33,,,0.33,VWS V14.01,2013-05-20 20:16:00,
2013-05-20 16:21:00,57.3,54.4,29.73,SE,139,8.0,9.0,90,0.33,,,0.33,VWS V14.01,2013-05-20 20:21:00,
2013-05-20 16:26:00,56.9,54.3,29.72,SE,132,4.0,5.0,91,0.33,,,0.33,VWS V14.01,2013-05-20 20:26:00,
2013-05-20 16:31:00,56.8,54.5,29.72,SE,140,1.0,6.0,92,0.33,,,0.33,VWS V14.01,2013-05-20 20:31:00,
2013-05-20 16:36:00,56.5,54.2,29.72,ESE,107,2.0,4.0,92,0.03,,,0.33,VWS V14.01,2013-05-20 20:36:00,
2013-05-20 16:41:00,56.4,54.1,29.71,SE,135,5.0,8.0,92,0.03,,,0.33,VWS V14.01,2013-05-20 20:41:00,
2013-05-20 16:46:00,56.6,54.6,29.72,SSE,147,4.0,5.0,93,0.03,,,0.33,VWS V14.01,2013-05-20 20:46:00,
2013-05-20 16:51:00,56.9,55.2,29.72,SE,125,2.0,3.0,94,0.03,,,0.33,VWS V14.01,2013-05-20 20:51:00,
2013-05-20 16:56:00,57.2,55.5,29.72,SE,140,3.0,3.0,94,0.03,,,0.33,VWS V14.01,2013-05-20 20:56:00,
2013-05-20 17:01:00,57.4,55.7,29.72,ESE,111,3.0,3.0,94,0.04,,,0.34,VWS V14.01,2013-05-20 21:01:00,
2013-05-20 17:06:00,57.7,56.0,29.72,SE,137,1.0,1.0,94,0.01,,,0.34,VWS V14.01,2013-05-20 21:06:00,
2013-05-20 17:11:00,58.2,56.5,29.71,ESE,109,3.0,3.0,94,0.01,,,0.34,VWS V14.01,2013-05-20 21:11:00,
2013-05-20 17:17:00,59.0,57.6,29.72,SE,132,0.0,1.0,95,0.01,,,0.34,VWS V14.01,2013-05-20 21:17:00,
2013-05-20 17:22:00,59.5,57.8,29.72,South,185,1.0,2.0,94,0.01,,,0.34,VWS V14.01,2013-05-20 21:22:00,
2013-05-20 17:27:00,59.8,57.8,29.72,South,190,1.0,1.0,93,0.01,,,0.34,VWS V14.01,2013-05-20 21:27:00,
2013-05-20 17:32:00,60.5,58.8,29.72,South,190,1.0,1.0,94,0.01,,,0.34,VWS V14.01,2013-05-20 21:32:00,
2013-05-20 17:37:00,61.0,59.0,29.72,WSW,255,2.0,2.0,93,0.01,,,0.34,VWS V14.01,2013-05-20 21:37:00,
2013-05-20 17:42:00,61.9,60.2,29.72,West,269,0.0,1.0,94,0.01,,,0.34,VWS V14.01,2013-05-20 21:42:00,
2013-05-20 17:47:00,61.9,59.5,29.72,ENE,68,0.0,1.0,92,0.01,,,0.34,VWS V14.01,2013-05-20 21:47:00,
2013-05-20 17:52:00,62.3,60.0,29.72,West,267,0.0,1.0,92,0.01,,,0.34,VWS V14.01,2013-05-20 21:52:00,
2013-05-20 17:57:00,62.3,60.2,29.73,WNW,296,1.0,2.0,93,0.01,,,0.34,VWS V14.01,2013-05-20 21:57:00,
2013-05-20 18:02:00,62.6,60.8,29.73,SSW,209,1.0,2.0,94,0.01,,,0.34,VWS V14.01,2013-05-20 22:02:00,
2013-05-20 18:07:00,62.6,60.5,29.73,SSE,155,0.0,1.0,93,0.00,,,0.34,VWS V14.01,2013-05-20 22:07:00,
2013-05-20 18:12:00,62.8,60.8,29.72,SE,142,0.0,1.0,93,0.00,,,0.34,VWS V14.01,2013-05-20 22:12:00,
2013-05-20 18:17:00,63.1,61.0,29.72,SE,142,0.0,0.0,93,0.00,,,0.34,VWS V14.01,2013-05-20 22:17:00,
2013-05-20 18:22:00,63.6,61.5,29.73,SE,142,2.0,2.0,93,0.00,,,0.34,VWS V14.01,2013-05-20 22:22:00,
2013-05-20 18:27:00,64.0,61.9,29.73,ESE,104,2.0,2.0,93,0.00,,,0.34,VWS V14.01,2013-05-20 22:27:00,
2013-05-20 18:32:00,64.2,62.1,29.72,ESE,109,3.0,3.0,93,0.00,,,0.34,VWS V14.01,2013-05-20 22:32:00,
2013-05-20 18:37:00,64.5,62.7,29.72,East,96,0.0,2.0,94,0.00,,,0.34,VWS V14.01,2013-05-20 22:37:00,
2013-05-20 18:42:00,64.5,62.4,29.73,East,85,2.0,3.0,93,0.00,,,0.34,VWS V14.01,2013-05-20 22:42:00,
2013-05-20 18:47:00,64.5,62.4,29.73,East,86,1.0,2.0,93,0.00,,,0.34,VWS V14.01,2013-05-20 22:47:00,
2013-05-20 18:52:00,64.7,62.6,29.73,East,97,3.0,3.0,93,0.00,,,0.34,VWS V14.01,2013-05-20 22:52:00,
2013-05-20 18:57:00,64.9,62.8,29.73,ESE,112,2.0,2.0,93,0.00,,,0.34,VWS V14.01,2013-05-20 22:57:00,
2013-05-20 19:02:00,65.1,63.0,29.73,East,86,2.0,3.0,93,0.00,,,0.34,VWS V14.01,2013-05-20 23:02:00,
2013-05-20 19:07:00,65.2,63.1,29.74,East,88,3.0,3.0,93,0.00,,,0.34,VWS V14.01,2013-05-20 23:07:00,
2013-05-20 19:12:00,65.4,63.3,29.73,East,86,2.0,3.0,93,0.00,,,0.34,VWS V14.01,2013-05-20 23:12:00,
2013-05-20 19:17:00,65.3,63.5,29.74,NE,40,2.0,2.0,94,0.00,,,0.34,VWS V14.01,2013-05-20 23:17:00,
2013-05-20 19:22:00,64.7,62.6,29.74,NE,55,4.0,4.0,93,0.00,,,0.34,VWS V14.01,2013-05-20 23:22:00,
2013-05-20 19:27:00,64.1,62.0,29.74,East,94,3.0,4.0,93,0.00,,,0.34,VWS V14.01,2013-05-20 23:27:00,
2013-05-20 19:32:00,63.9,62.1,29.74,ENE,66,4.0,4.0,94,0.00,,,0.34,VWS V14.01,2013-05-20 23:32:00,
2013-05-20 19:38:00,63.9,62.1,29.74,ESE,108,2.0,2.0,94,0.00,,,0.34,VWS V14.01,2013-05-20 23:38:00,
2013-05-20 19:43:00,64.0,62.2,29.74,East,96,4.0,4.0,94,0.00,,,0.34,VWS V14.01,2013-05-20 23:43:00,
2013-05-20 19:48:00,64.0,62.2,29.74,East,89,5.0,5.0,94,0.00,,,0.34,VWS V14.01,2013-05-20 23:48:00,
2013-05-20 19:53:00,63.8,62.0,29.74,East,93,3.0,3.0,94,0.00,,,0.34,VWS V14.01,2013-05-20 23:53:00,
2013-05-20 19:58:00,63.9,62.1,29.74,East,97,4.0,7.0,94,0.00,,,0.34,VWS V14.01,2013-05-20 23:58:00,
2013-05-20 20:03:00,63.9,62.1,29.73,SE,130,2.0,3.0,94,0.00,,,0.34,VWS V14.01,2013-05-21 00:03:00,
2013-05-20 20:08:00,63.7,62.0,29.73,ESE,113,3.0,4.0,94,0.00,,,0.34,VWS V14.01,2013-05-21 00:08:00,
2013-05-20 20:13:00,63.5,62.0,29.73,East,94,2.0,3.0,95,0.00,,,0.34,VWS V14.01,2013-05-21 00:13:00,
2013-05-20 20:18:00,63.3,61.5,29.73,ESE,103,3.0,4.0,94,0.00,,,0.34,VWS V14.01,2013-05-21 00:18:00,
2013-05-20 20:23:00,63.2,61.8,29.73,East,87,4.0,6.0,95,0.00,,,0.34,VWS V14.01,2013-05-21 00:23:00,
2013-05-20 20:28:00,62.8,61.3,29.73,NE,44,4.0,4.0,95,0.00,,,0.34,VWS V14.01,2013-05-21 00:28:00,
2013-05-20 20:33:00,61.7,60.0,29.73,ENE,73,4.0,7.0,94,0.00,,,0.34,VWS V14.01,2013-05-21 00:33:00,
2013-05-20 20:38:00,61.2,59.8,29.73,East,84,4.0,4.0,95,0.00,,,0.34,VWS V14.01,2013-05-21 00:38:00,
2013-05-20 20:43:00,61.2,59.8,29.74,East,82,4.0,5.0,95,0.00,,,0.34,VWS V14.01,2013-05-21 00:43:00,
2013-05-20 20:48:00,61.0,59.6,29.74,East,88,3.0,4.0,95,0.00,,,0.34,VWS V14.01,2013-05-21 00:48:00,
2013-05-20 20:53:00,60.8,59.7,29.74,ENE,68,2.0,2.0,96,0.00,,,0.34,VWS V14.01,2013-05-21 00:53:00,
2013-05-20 20:58:00,60.6,59.5,29.74,ESE,109,6.0,6.0,96,0.00,,,0.34,VWS V14.01,2013-05-21 00:58:00,
2013-05-20 21:03:00,60.4,59.3,29.74,ESE,120,7.0,7.0,96,0.00,,,0.34,VWS V14.01,2013-05-21 01:03:00,
2013-05-20 21:08:00,60.1,59.0,29.74,East,83,7.0,9.0,96,0.00,,,0.34,VWS V14.01,2013-05-21 01:08:00,
2013-05-20 21:13:00,59.8,58.7,29.74,East,95,6.0,6.0,96,0.00,,,0.34,VWS V14.01,2013-05-21 01:13:00,
2013-05-20 21:18:00,59.3,57.9,29.74,East,93,7.0,9.0,95,0.00,,,0.34,VWS V14.01,2013-05-21 01:18:00,
2013-05-20 21:23:00,58.7,57.3,29.74,East,94,11.0,13.0,95,0.00,,,0.34,VWS V14.01,2013-05-21 01:23:00,
2013-05-20 21:28:00,58.1,56.4,29.74,ESE,102,7.0,10.0,94,0.00,,,0.34,VWS V14.01,2013-05-21 01:28:00,
2013-05-20 21:33:00,57.5,55.8,29.74,East,87,7.0,7.0,94,0.00,,,0.34,VWS V14.01,2013-05-21 01:33:00,
2013-05-20 21:38:00,57.0,55.3,29.75,East,87,13.0,13.0,94,0.00,,,0.34,VWS V14.01,2013-05-21 01:38:00,
2013-05-20 21:43:00,56.6,54.9,29.75,ESE,113,4.0,7.0,94,0.00,,,0.34,VWS V14.01,2013-05-21 01:43:00,
2013-05-20 21:48:00,56.1,54.4,29.75,ESE,102,8.0,8.0,94,0.00,,,0.34,VWS V14.01,2013-05-21 01:48:00,
2013-05-20 21:53:00,55.7,54.0,29.75,ESE,103,8.0,9.0,94,0.00,,,0.34,VWS V14.01,2013-05-21 01:53:00,
2013-05-20 21:58:00,55.3,53.6,29.75,ESE,103,10.0,12.0,94,0.00,,,0.34,VWS V14.01,2013-05-21 01:58:00,
2013-05-20 22:03:00,55.1,53.4,29.75,SE,129,10.0,10.0,94,0.00,,,0.34,VWS V14.01,2013-05-21 02:03:00,
2013-05-20 22:08:00,55.0,53.3,29.75,ESE,113,10.0,12.0,94,0.00,,,0.34,VWS V14.01,2013-05-21 02:08:00,
2013-05-20 22:14:00,54.9,53.5,29.75,East,100,10.0,12.0,95,0.00,,,0.34,VWS V14.01,2013-05-21 02:14:00,
2013-05-20 22:19:00,55.0,53.6,29.75,East,94,8.0,9.0,95,0.00,,,0.34,VWS V14.01,2013-05-21 02:19:00,
2013-05-20 22:24:00,55.0,53.6,29.75,SSE,148,5.0,5.0,95,0.00,,,0.34,VWS V14.01,2013-05-21 02:24:00,
2013-05-20 22:29:00,55.0,53.9,29.75,ESE,109,7.0,10.0,96,0.00,,,0.34,VWS V14.01,2013-05-21 02:29:00,
2013-05-20 22:34:00,55.0,53.9,29.76,East,101,9.0,9.0,96,0.00,,,0.34,VWS V14.01,2013-05-21 02:34:00,
2013-05-20 22:39:00,55.1,54.0,29.76,East,99,9.0,9.0,96,0.00,,,0.34,VWS V14.01,2013-05-21 02:39:00,
2013-05-20 22:44:00,55.1,54.0,29.76,ESE,111,15.0,15.0,96,0.00,,,0.34,VWS V14.01,2013-05-21 02:44:00,
2013-05-20 22:49:00,55.1,54.0,29.76,East,100,11.0,15.0,96,0.00,,,0.34,VWS V14.01,2013-05-21 02:49:00,
2013-05-20 22:54:00,55.2,54.1,29.76,ESE,105,6.0,8.0,96,0.00,,,0.34,VWS V14.01,2013-05-21 02:54:00,
2013-05-20 22:59:00,55.2,54.1,29.76,SE,145,9.0,11.0,96,0.00,,,0.34,VWS V14.01,2013-05-21 02:59:00,
2013-05-20 23:04:00,55.2,54.1,29.76,ESE,116,8.0,8.0,96,0.00,,OVC004,0.34,VWS V14.01,2013-05-21 03:04:00,
2013-05-20 23:09:00,55.0,53.9,29.76,SE,125,10.0,11.0,96,0.00,,OVC004,0.34,VWS V14.01,2013-05-21 03:09:00,
2013-05-20 23:14:00,54.8,53.7,29.76,ESE,121,9.0,11.0,96,0.00,,OVC004,0.34,VWS V14.01,2013-05-21 03:14:00,
2013-05-20 23:19:00,54.7,53.6,29.76,ESE,107,10.0,10.0,96,0.00,,OVC004,0.34,VWS V14.01,2013-05-21 03:19:00,
2013-05-20 23:24:00,54.5,53.4,29.76,South,170,5.0,9.0,96,0.00,,OVC004,0.34,VWS V14.01,2013-05-21 03:24:00,
2013-05-20 23:29:00,54.4,53.3,29.76,ESE,108,10.0,14.0,96,0.00,,OVC004,0.34,VWS V14.01,2013-05-21 03:29:00,
2013-05-20 23:34:00,54.4,53.3,29.76,ESE,116,6.0,10.0,96,0.00,,OVC004,0.34,VWS V14.01,2013-05-21 03:34:00,
2013-05-20 23:39:00,54.5,53.7,29.75,SE,140,7.0,9.0,97,0.00,,OVC004,0.34,VWS V14.01,2013-05-21 03:39:00,
2013-05-20 23:45:00,54.5,53.4,29.76,ESE,122,13.0,13.0,96,0.00,,OVC004,0.34,VWS V14.01,2013-05-21 03:45:00,
2013-05-20 23:50:00,54.7,53.9,29.76,SE,131,8.0,8.0,97,0.00,,OVC004,0.34,VWS V14.01,2013-05-21 03:50:00,
2013-05-20 23:55:00,54.8,54.0,29.76,SE,132,7.0,11.0,97,0.00,,OVC004,0.34,VWS V14.01,2013-05-21 03:55:00,